Time;durP1;ratioP1;P1;durP2;ratioP2;P2;SDS_P1;SDS_P2;PMS_P1;PMS_P2;Temp;Humidity;BMP_temperature;BMP_pressure;BME280_temperature;BME280_humidity;BME280_pressure;Samples;Min_cycle;Max_cycle;Signal;HPM_P1;HPM_P2
2023/04/26 00:01:46;;;;;;;11.47;5.13;;;2.70;1.00;2.50;94029.00;;;;7396904;19;20600;-75
2023/04/26 00:04:20;;;;;;;7.57;4.83;;;2.60;1.00;2.40;94026.00;;;;7394935;19;20117;-75
2023/04/26 00:07:07;;;;;;;8.47;5.03;;;2.50;1.00;2.40;94009.00;;;;7395064;19;20168;-75
2023/04/26 00:09:43;;;;;;;8.53;4.80;;;2.40;1.00;2.40;94032.00;;;;7396953;19;20129;-75
2023/04/26 00:12:11;;;;;;;14.43;5.33;;;2.40;1.00;2.40;94028.00;;;;7401536;19;20635;-78
2023/04/26 00:14:38;;;;;;;8.07;4.70;;;2.40;1.00;2.40;93999.00;;;;7403104;19;20138;-75
2023/04/26 00:17:12;;;;;;;10.17;4.77;;;2.40;13.40;2.40;94024.00;;;;7404205;19;20169;-75
2023/04/26 00:19:46;;;;;;;13.33;4.73;;;2.40;40.10;2.40;94029.00;;;;7403662;19;20146;-74
2023/04/26 00:22:14;;;;;;;8.43;5.30;;;2.40;25.00;2.40;93998.00;;;;7405538;19;20196;-75
2023/04/26 00:24:47;;;;;;;7.90;5.13;;;2.40;44.40;2.40;94011.00;;;;7403354;19;20161;-74
2023/04/26 00:27:15;;;;;;;12.23;5.97;;;2.40;19.80;2.50;94016.00;;;;7405670;19;20141;-75
2023/04/26 00:29:48;;;;;;;7.63;4.80;;;2.40;1.00;2.50;94026.00;;;;7394917;19;20640;-74
2023/04/26 00:32:15;;;;;;;15.70;5.60;;;2.40;1.00;2.50;94030.00;;;;7402685;19;20137;-74
2023/04/26 00:34:49;;;;;;;10.20;5.80;;;2.40;1.00;2.50;93995.00;;;;7403904;19;20715;-74
2023/04/26 00:37:23;;;;;;;9.03;4.43;;;2.40;1.00;2.40;94020.00;;;;7395660;19;20145;-74
2023/04/26 00:39:50;;;;;;;15.93;4.80;;;2.40;1.00;2.40;94007.00;;;;7401823;19;20226;-74
2023/04/26 00:42:26;;;;;;;6.40;4.33;;;2.40;1.00;2.30;93991.00;;;;7404307;19;20137;-75
2023/04/26 00:44:56;;;;;;;9.67;5.00;;;2.50;1.00;2.30;94019.00;;;;7402955;19;20173;-74
2023/04/26 00:47:29;;;;;;;8.70;4.40;;;2.50;1.00;2.30;93929.00;;;;7404552;19;20180;-75
2023/04/26 00:49:58;;;;;;;13.33;4.83;;;2.40;1.00;2.30;93984.00;;;;7403265;19;20144;-77
2023/04/26 00:52:32;;;;;;;9.97;4.70;;;2.40;1.00;2.40;94024.00;;;;7404329;19;20599;-74
2023/04/26 00:55:00;;;;;;;8.73;4.67;;;2.30;1.00;2.30;93991.00;;;;7403118;19;20125;-74
2023/04/26 00:57:33;;;;;;;10.60;5.47;;;2.30;1.00;2.20;93989.00;;;;7403523;19;20149;-74
2023/04/26 01:00:00;;;;;;;9.70;4.90;;;2.20;1.00;2.20;94014.00;;;;7401460;19;20180;-75
2023/04/26 01:02:34;;;;;;;10.67;4.80;;;2.10;1.00;2.20;94029.00;;;;7400727;19;20177;-74
2023/04/26 01:05:01;;;;;;;8.30;4.60;;;2.20;1.00;2.20;94018.00;;;;7402876;19;20196;-74
2023/04/26 01:07:37;;;;;;;11.37;5.33;;;2.20;1.00;2.20;94027.00;;;;7401491;19;20177;-74
2023/04/26 01:10:18;;;;;;;8.50;4.80;;;2.20;1.00;2.20;94012.00;;;;7401904;19;20163;-74
2023/04/26 01:12:53;;;;;;;13.17;4.93;;;2.10;1.00;2.30;94002.00;;;;7402869;19;20117;-75
2023/04/26 01:15:27;;;;;;;12.27;5.83;;;2.20;1.00;2.40;93996.00;;;;7402038;19;20629;-74
2023/04/26 01:18:00;;;;;;;13.50;5.37;;;2.20;1.00;2.50;94011.00;;;;7404189;19;20141;-75
2023/04/26 01:20:27;;;;;;;8.13;4.73;;;2.20;1.00;2.50;94006.00;;;;7399922;19;20232;-74
2023/04/26 01:22:55;;;;;;;11.17;5.33;;;2.30;99.90;2.60;93999.00;;;;7401812;19;20129;-75
2023/04/26 01:25:29;;;;;;;10.20;5.50;;;2.30;99.90;2.50;93997.00;;;;7402548;19;20576;-74
2023/04/26 01:27:56;;;;;;;14.33;5.97;;;2.30;99.90;2.50;93997.00;;;;7401895;19;20121;-75
2023/04/26 01:30:30;;;;;;;9.83;5.20;;;2.20;99.90;2.50;93972.00;;;;7403554;19;20129;-75
2023/04/26 01:33:04;;;;;;;9.90;5.70;;;2.20;99.90;2.40;93962.00;;;;7403046;19;20743;-75
2023/04/26 01:35:32;;;;;;;11.40;5.47;;;2.10;99.90;2.30;93991.00;;;;7396914;19;20487;-74
2023/04/26 01:38:06;;;;;;;7.47;4.73;;;2.00;99.90;2.20;93955.00;;;;7403682;19;20176;-74
2023/04/26 01:40:42;;;;;;;8.80;4.90;;;2.10;1.00;2.20;94000.00;;;;7401272;19;20139;-74
2023/04/26 01:43:09;;;;;;;8.90;5.00;;;2.10;1.00;2.10;93986.00;;;;7402726;19;20117;-74
2023/04/26 01:45:47;;;;;;;8.50;4.57;;;2.10;1.00;2.00;93991.00;;;;7399967;19;20458;-74
2023/04/26 01:48:21;;;;;;;11.37;4.70;;;2.00;1.00;1.90;94006.00;;;;7402872;19;20196;-74
2023/04/26 01:50:48;;;;;;;12.50;5.60;;;1.90;1.00;1.70;94009.00;;;;7401177;19;20152;-74
2023/04/26 01:53:22;;;;;;;11.43;5.10;;;1.80;1.00;1.60;94000.00;;;;7400879;19;20136;-74
2023/04/26 01:55:49;;;;;;;12.97;5.53;;;1.70;1.00;1.50;94001.00;;;;7402223;19;20162;-74
2023/04/26 01:58:23;;;;;;;9.70;5.57;;;1.60;1.00;1.40;94002.00;;;;7400524;19;20140;-74
2023/04/26 02:00:50;;;;;;;10.57;5.77;;;1.50;1.00;1.30;93996.00;;;;7399033;19;20147;-74
2023/04/26 02:03:24;;;;;;;12.20;5.87;;;1.40;1.00;1.30;93990.00;;;;7401501;19;20172;-74
2023/04/26 02:05:51;;;;;;;12.47;5.67;;;1.30;1.00;1.30;93970.00;;;;7399834;19;20612;-75
2023/04/26 02:08:32;;;;;;;13.97;6.17;;;1.30;1.00;1.20;93977.00;;;;7398749;19;20177;-74
2023/04/26 02:10:59;;;;;;;13.97;6.50;;;1.20;1.00;1.20;94004.00;;;;7401452;19;20184;-75
2023/04/26 02:13:33;;;;;;;12.53;6.83;;;1.10;1.00;1.20;93950.00;;;;7401916;19;20146;-76
2023/04/26 02:16:00;;;;;;;9.70;6.00;;;1.10;57.10;1.20;94008.00;;;;7400766;19;20600;-75
2023/04/26 02:18:34;;;;;;;18.23;7.40;;;1.10;99.90;1.30;93954.00;;;;7399539;19;20201;-78
2023/04/26 02:21:10;;;;;;;14.20;7.17;;;1.10;99.90;1.20;93974.00;;;;7398955;19;20609;-75
2023/04/26 02:23:37;;;;;;;12.77;7.27;;;1.20;99.90;1.20;93999.00;;;;7399679;19;20140;-74
2023/04/26 02:26:12;;;;;;;15.03;7.20;;;1.20;99.90;1.20;94008.00;;;;7399203;19;20636;-75
2023/04/26 02:28:40;;;;;;;13.87;7.23;;;1.20;99.90;1.10;94006.00;;;;7399241;19;20129;-74
2023/04/26 02:31:14;;;;;;;14.30;7.90;;;1.20;99.90;1.30;93976.00;;;;7401057;19;20615;-75
2023/04/26 02:33:42;;;;;;;16.00;8.40;;;1.20;99.90;1.40;93963.00;;;;7399498;19;20616;-75
2023/04/26 02:36:15;;;;;;;15.87;7.77;;;1.20;99.90;1.50;94000.00;;;;7394437;19;20182;-76
2023/04/26 02:38:42;;;;;;;19.63;7.97;;;1.30;99.90;1.50;94011.00;;;;7401665;19;20626;-75
2023/04/26 02:41:09;;;;;;;12.10;7.87;;;1.40;1.00;1.60;94001.00;;;;7398274;19;20167;-75
2023/04/26 02:43:43;;;;;;;21.87;9.10;;;1.50;1.00;1.70;93959.00;;;;7401635;19;20125;-75
2023/04/26 02:46:17;;;;;;;17.57;9.47;;;1.50;1.00;1.70;93990.00;;;;7400495;19;20197;-74
2023/04/26 02:48:50;;;;;;;18.33;8.67;;;1.50;1.00;1.60;93990.00;;;;7400009;19;20143;-74
2023/04/26 02:51:17;;;;;;;13.20;8.20;;;1.50;1.00;1.70;93991.00;;;;7400157;19;20151;-75
2023/04/26 02:53:51;;;;;;;19.03;9.57;;;1.50;1.00;1.70;93998.00;;;;7399821;19;20200;-75
2023/04/26 02:56:25;;;;;;;17.57;9.10;;;1.50;1.00;1.70;93988.00;;;;7399645;19;20150;-74
2023/04/26 02:58:59;;;;;;;13.03;8.73;;;1.40;1.00;1.60;94004.00;;;;7400706;19;20129;-73
2023/04/26 03:01:32;;;;;;;14.13;7.60;;;1.40;1.00;1.40;94002.00;;;;7398331;19;20145;-75
2023/04/26 03:03:59;;;;;;;12.07;7.70;;;1.30;1.00;1.30;93994.00;;;;7399435;19;20615;-75
2023/04/26 03:06:34;;;;;;;15.30;6.60;;;1.20;1.00;1.20;93985.00;;;;7397192;19;20148;-74
2023/04/26 03:09:08;;;;;;;10.77;6.50;;;1.10;1.00;1.20;93991.00;;;;7396678;19;20197;-74
2023/04/26 03:11:49;;;;;;;9.10;5.93;;;1.00;1.00;1.00;93949.00;;;;7398251;19;20157;-75
2023/04/26 03:14:16;;;;;;;10.03;5.50;;;0.90;1.00;0.90;93994.00;;;;7398556;19;20611;-74
2023/04/26 03:16:50;;;;;;;14.53;7.17;;;0.80;1.00;0.90;93967.00;;;;7398389;19;20165;-74
2023/04/26 03:19:26;;;;;;;12.90;7.80;;;0.80;1.00;0.90;93998.00;;;;7400338;19;20136;-74
2023/04/26 03:22:00;;;;;;;12.77;7.40;;;0.70;1.00;0.80;93977.00;;;;7396163;19;20140;-74
2023/04/26 03:24:27;;;;;;;13.60;7.77;;;0.70;1.00;0.90;93956.00;;;;7399101;19;20145;-74
2023/04/26 03:27:01;;;;;;;11.63;6.73;;;0.70;1.00;0.80;93951.00;;;;7400175;19;20602;-75
2023/04/26 03:29:36;;;;;;;11.60;7.47;;;0.70;1.00;0.80;93994.00;;;;7399224;19;20129;-75
2023/04/26 03:32:03;;;;;;;12.40;6.70;;;0.60;1.00;0.70;93993.00;;;;7397260;19;20133;-76
2023/04/26 03:34:46;;;;;;;12.17;7.80;;;0.50;1.00;0.70;93897.00;;;;7399665;19;20138;-76
2023/04/26 03:37:20;;;;;;;14.10;6.60;;;0.50;1.00;0.70;93985.00;;;;7391816;19;20180;-76
2023/04/26 03:39:49;;;;;;;12.03;6.80;;;0.50;1.00;0.60;93983.00;;;;7397645;19;20152;-76
2023/04/26 03:42:23;;;;;;;14.87;7.77;;;0.50;1.00;0.70;93978.00;;;;7398665;19;20133;-74
2023/04/26 03:44:50;;;;;;;10.93;6.63;;;0.50;1.00;0.50;93968.00;;;;7398006;19;20133;-74
2023/04/26 03:47:24;;;;;;;13.97;7.90;;;0.60;1.00;0.70;93961.00;;;;7396643;19;20132;-74
2023/04/26 03:49:58;;;;;;;11.00;7.87;;;0.60;1.00;0.70;93956.00;;;;7397925;19;20156;-74
2023/04/26 03:52:32;;;;;;;13.67;7.87;;;0.60;1.00;0.70;93973.00;;;;7399012;19;20448;-74
2023/04/26 03:55:08;;;;;;;16.93;7.67;;;0.70;1.00;0.90;93985.00;;;;7398080;19;20132;-74
2023/04/26 03:57:36;;;;;;;17.30;8.40;;;0.70;1.00;0.90;93959.00;;;;7399604;19;20121;-74
2023/04/26 04:00:13;;;;;;;18.47;8.60;;;0.80;1.00;0.90;93977.00;;;;7396093;19;20597;-75
2023/04/26 04:02:41;;;;;;;13.53;8.20;;;0.90;1.00;0.90;93992.00;;;;7395943;19;20137;-74
2023/04/26 04:05:15;;;;;;;16.53;8.40;;;0.90;1.00;0.90;93988.00;;;;7397061;19;20128;-74
2023/04/26 04:07:42;;;;;;;15.13;7.03;;;0.90;1.00;1.00;93989.00;;;;7397778;19;20144;-75
2023/04/26 04:10:16;;;;;;;14.07;8.33;;;1.00;1.00;1.00;93987.00;;;;7398413;19;20489;-75
2023/04/26 04:12:52;;;;;;;14.93;8.37;;;1.00;1.00;1.00;93974.00;;;;7396455;19;20471;-74
2023/04/26 04:15:20;;;;;;;14.60;8.17;;;1.00;1.00;1.00;93945.00;;;;7396351;19;20596;-75
2023/04/26 04:17:53;;;;;;;12.30;7.90;;;1.00;1.00;1.00;93941.00;;;;7396368;19;20177;-75
2023/04/26 04:20:20;;;;;;;18.17;8.60;;;0.90;1.00;0.90;93963.00;;;;7395734;19;20623;-75
2023/04/26 04:22:55;;;;;;;18.80;9.83;;;1.00;1.00;1.00;93981.00;;;;7396812;19;20627;-75
2023/04/26 04:25:24;;;;;;;18.37;10.17;;;1.00;1.00;0.90;93977.00;;;;7394817;19;20631;-75
2023/04/26 04:28:01;;;;;;;19.00;11.00;;;0.90;1.00;1.00;93992.00;;;;7390856;19;20577;-75
2023/04/26 04:30:29;;;;;;;21.60;12.30;;;1.00;1.00;0.90;93986.00;;;;7394217;19;20572;-75
2023/04/26 04:32:59;;;;;;;20.60;11.33;;;1.00;1.00;1.00;93949.00;;;;7387135;19;20627;-75
2023/04/26 04:35:35;;;;;;;17.97;10.30;;;0.90;1.00;1.00;93986.00;;;;7392628;19;20137;-75
2023/04/26 04:38:08;;;;;;;16.33;10.17;;;0.90;1.00;1.00;93995.00;;;;7387291;19;20132;-74
2023/04/26 04:40:36;;;;;;;17.63;10.50;;;0.90;1.00;1.00;93989.00;;;;7392409;19;20169;-77
2023/04/26 04:43:09;;;;;;;16.10;9.50;;;0.80;1.00;1.00;93975.00;;;;7395473;19;20129;-75
2023/04/26 04:45:37;;;;;;;19.90;11.73;;;0.80;1.00;1.00;93996.00;;;;7392417;19;20660;-75
2023/04/26 04:48:11;;;;;;;22.30;11.57;;;0.80;1.00;1.00;93990.00;;;;7391550;19;20865;-75
2023/04/26 04:50:39;;;;;;;19.63;11.00;;;0.90;1.00;1.10;93980.00;;;;7393036;19;20172;-75
2023/04/26 04:53:12;;;;;;;19.67;11.57;;;1.00;1.00;1.10;93994.00;;;;7395827;19;20605;-75
2023/04/26 04:55:48;;;;;;;18.60;10.23;;;1.10;1.00;1.30;94005.00;;;;7394798;19;20136;-76
2023/04/26 04:58:22;;;;;;;20.67;10.17;;;1.20;1.00;1.50;93994.00;;;;7397734;19;20208;-80
2023/04/26 05:00:52;;;;;;;17.00;9.60;;;1.30;1.00;1.50;94010.00;;;;7402356;19;20165;-75
2023/04/26 05:03:26;;;;;;;19.53;9.33;;;1.30;1.00;1.60;94007.00;;;;7403573;19;20473;-75
2023/04/26 05:06:01;;;;;;;14.10;8.57;;;1.40;1.00;1.80;93996.00;;;;7402447;19;20586;-76
2023/04/26 05:08:48;;;;;;;15.27;9.17;;;1.50;1.00;1.90;94008.00;;;;7398335;19;20195;-75
2023/04/26 05:11:22;;;;;;;18.80;10.23;;;1.50;1.00;2.00;93963.00;;;;7404192;19;20147;-76
2023/04/26 05:13:56;;;;;;;15.97;9.33;;;1.70;1.00;2.00;94010.00;;;;7402686;19;20208;-75
2023/04/26 05:16:25;;;;;;;18.43;9.40;;;1.80;29.50;2.10;94002.00;;;;7401491;19;20489;-75
2023/04/26 05:18:59;;;;;;;18.50;9.20;;;1.80;82.30;2.10;93998.00;;;;7402505;19;20588;-75
2023/04/26 05:21:35;;;;;;;17.40;9.57;;;1.80;99.90;2.10;94011.00;;;;7400990;19;20471;-76
2023/04/26 05:24:09;;;;;;;17.20;9.17;;;1.90;99.90;2.10;94025.00;;;;7403174;19;20205;-74
2023/04/26 05:26:39;;;;;;;20.13;10.13;;;1.90;99.90;2.10;94027.00;;;;7402976;19;20162;-76
2023/04/26 05:29:15;;;;;;;15.93;10.17;;;1.80;99.90;2.10;94031.00;;;;7403233;19;20133;-75
2023/04/26 05:31:49;;;;;;;15.97;9.73;;;1.90;99.90;2.50;93973.00;;;;7402853;19;20136;-75
2023/04/26 05:34:23;;;;;;;22.07;11.87;;;2.00;99.90;3.10;94024.00;;;;7401919;19;20149;-76
2023/04/26 05:36:52;;;;;;;31.77;13.50;;;2.30;99.90;3.90;94000.00;;;;7399708;19;20137;-77
2023/04/26 05:39:26;;;;;;;26.03;14.53;;;2.50;99.90;4.40;94022.00;;;;7399023;19;20128;-76
2023/04/26 05:42:03;;;;;;;25.00;14.10;;;2.80;99.90;4.80;94035.00;;;;7398976;19;20161;-76
2023/04/26 05:44:40;;;;;;;26.70;13.60;;;3.20;99.90;5.20;94037.00;;;;7399982;19;20125;-77
2023/04/26 05:47:14;;;;;;;23.27;13.67;;;3.40;99.90;4.90;93962.00;;;;7401436;19;20141;-76
2023/04/26 05:49:48;;;;;;;18.37;11.63;;;3.50;1.00;4.90;94021.00;;;;7401630;19;20120;-75
2023/04/26 05:52:22;;;;;;;17.23;9.60;;;3.60;99.90;5.10;93958.00;;;;7400577;19;20176;-76
2023/04/26 05:54:51;;;;;;;16.67;9.60;;;3.70;1.00;5.10;94010.00;;;;7401194;19;20204;-77
2023/04/26 05:57:24;;;;;;;13.13;8.43;;;3.80;99.90;5.20;94034.00;;;;7374413;19;20128;-76
2023/04/26 05:59:51;;;;;;;13.07;8.50;;;3.90;1.00;5.50;94025.00;;;;7384779;19;20216;-77
2023/04/26 06:02:25;;;;;;;13.53;7.00;;;4.10;1.00;6.10;94023.00;;;;7383943;19;20185;-76
2023/04/26 06:04:53;;;;;;;8.80;6.33;;;4.30;99.90;6.10;94035.00;;;;7384172;19;20145;-76
2023/04/26 06:07:20;;;;;;;12.97;6.43;;;4.40;1.00;6.30;94024.00;;;;7383266;19;20220;-74
2023/04/26 06:10:01;;;;;;;12.13;6.77;;;4.60;1.00;6.80;94028.00;;;;7383572;19;20612;-76
2023/04/26 06:12:35;;;;;;;12.33;6.07;;;4.90;99.90;6.90;94014.00;;;;7386245;19;20157;-76
2023/04/26 06:15:10;;;;;;;8.10;6.10;;;5.10;1.00;6.70;94043.00;;;;7385517;19;20128;-75
2023/04/26 06:17:44;;;;;;;12.07;6.10;;;5.10;99.90;6.70;94033.00;;;;7386143;19;20494;-75
2023/04/26 06:20:11;;;;;;;14.30;6.17;;;5.10;99.90;6.80;94047.00;;;;7386080;19;20129;-75
2023/04/26 06:22:47;;;;;;;10.67;5.67;;;5.20;99.90;6.70;94045.00;;;;7384315;19;20157;-75
2023/04/26 06:25:20;;;;;;;10.40;5.50;;;5.30;1.00;6.90;94047.00;;;;7383452;19;20172;-74
2023/04/26 06:27:55;;;;;;;11.77;5.70;;;5.30;1.00;6.80;94048.00;;;;7385711;19;20139;-75
2023/04/26 06:30:24;;;;;;;13.23;5.43;;;5.30;1.00;7.10;94053.00;;;;7383826;19;20133;-75
2023/04/26 06:32:59;;;;;;;7.43;5.50;;;5.30;1.00;7.40;94021.00;;;;7384248;19;20144;-76
2023/04/26 06:35:41;;;;;;;11.13;5.50;;;5.40;1.00;8.00;94047.00;;;;7379979;19;20211;-75
2023/04/26 06:38:11;;;;;;;11.77;5.50;;;5.60;1.00;8.20;94037.00;;;;7384115;19;20150;-76
2023/04/26 06:40:46;;;;;;;12.53;5.00;;;5.70;1.00;8.40;94036.00;;;;7385836;19;20600;-74
2023/04/26 06:43:16;;;;;;;9.60;5.23;;;5.80;1.00;8.50;94051.00;;;;7385917;19;20604;-74
2023/04/26 06:45:49;;;;;;;11.53;5.07;;;6.00;1.00;8.10;94005.00;;;;7383074;19;20136;-75
2023/04/26 06:48:17;;;;;;;7.27;4.80;;;6.20;99.90;8.30;94026.00;;;;7384955;19;20604;-76
2023/04/26 06:50:52;;;;;;;12.30;5.50;;;6.40;99.90;9.30;94042.00;;;;7385122;19;20608;-75
2023/04/26 06:53:20;;;;;;;10.45;4.90;;;6.50;99.90;9.40;94003.00;;;;7385655;19;20192;-74
2023/04/26 06:55:56;;;;;;;13.90;5.40;;;6.70;99.90;10.10;94035.00;;;;7382380;19;20480;-76
2023/04/26 06:58:23;;;;;;;9.85;4.75;;;6.90;99.90;10.10;94036.00;;;;7383631;19;20137;-75
2023/04/26 07:00:51;;;;;;;8.75;4.82;;;7.00;99.90;10.60;94032.00;;;;7381473;19;20478;-76
2023/04/26 07:03:25;;;;;;;10.82;5.20;;;7.10;99.90;10.20;94006.00;;;;7383815;19;20125;-76
2023/04/26 07:05:55;;;;;;;11.68;4.75;;;7.00;99.90;9.80;94048.00;;;;7380825;19;20184;-75
2023/04/26 07:08:36;;;;;;;8.52;4.10;;;7.20;99.90;9.40;94036.00;;;;7381027;19;20184;-75
2023/04/26 07:11:10;;;;;;;8.73;5.35;;;7.20;99.90;8.50;94042.00;;;;7383258;19;20133;-75
2023/04/26 07:13:43;;;;;;;9.95;5.15;;;7.20;99.90;7.90;94044.00;;;;7381737;19;20152;-76
2023/04/26 07:16:10;;;;;;;10.60;4.95;;;6.90;99.80;7.00;94008.00;;;;7381340;19;20148;-76
2023/04/26 07:18:47;;;;;;;9.88;4.47;;;6.60;99.90;7.00;93989.00;;;;7381541;19;20147;-75
2023/04/26 07:21:20;;;;;;;9.77;4.47;;;6.60;99.90;7.80;93984.00;;;;7379499;19;20159;-76
2023/04/26 07:23:57;;;;;;;9.23;4.60;;;6.60;99.90;7.90;94035.00;;;;7383249;19;20163;-74
2023/04/26 07:26:31;;;;;;;5.73;3.83;;;6.70;99.90;7.80;94010.00;;;;7381035;19;20595;-75
2023/04/26 07:29:05;;;;;;;9.50;4.30;;;6.80;99.90;7.80;94025.00;;;;7381605;19;20612;-78
2023/04/26 07:31:39;;;;;;;10.47;4.27;;;6.90;99.90;7.90;94030.00;;;;7382596;19;20129;-77
2023/04/26 07:34:13;;;;;;;10.17;4.60;;;6.80;60.90;7.50;94026.00;;;;7381037;19;20154;-76
2023/04/26 07:36:47;;;;;;;8.63;4.32;;;6.70;68.70;7.50;94037.00;;;;7379201;19;20159;-74
2023/04/26 07:39:23;;;;;;;8.00;4.38;;;6.70;99.90;7.50;94019.00;;;;7381443;19;20132;-76
2023/04/26 07:41:57;;;;;;;12.38;4.72;;;6.90;99.90;7.90;94010.00;;;;7380811;19;20161;-76
2023/04/26 07:44:31;;;;;;;12.23;4.70;;;7.10;81.30;8.10;94031.00;;;;7381913;19;20144;-74
2023/04/26 07:47:12;;;;;;;11.10;5.35;;;7.20;35.30;7.90;94034.00;;;;7378939;19;20138;-75
2023/04/26 07:49:40;;;;;;;10.55;5.03;;;7.20;73.90;7.60;94015.00;;;;7383220;19;20217;-77
2023/04/26 07:52:13;;;;;;;12.98;5.07;;;7.10;41.60;7.80;94041.00;;;;7379952;19;20127;-74
2023/04/26 07:54:47;;;;;;;8.68;4.72;;;7.00;86.60;8.10;94012.00;;;;7381633;19;20616;-76
2023/04/26 07:57:21;;;;;;;10.40;4.77;;;7.10;44.80;10.00;94000.00;;;;7381520;19;20128;-75
2023/04/26 08:00:08;;;;;;;8.85;4.43;;;7.70;99.90;11.60;94031.00;;;;7380451;19;20132;-75
2023/04/26 08:02:47;;;;;;;11.25;5.03;;;8.50;99.90;12.80;94015.00;;;;7381625;19;20219;-72
2023/04/26 08:05:15;;;;;;;9.93;5.00;;;9.50;8.30;13.00;94006.00;;;;7380925;19;20167;-73
2023/04/26 08:07:50;;;;;;;9.25;4.63;;;10.10;1.00;13.40;94011.00;;;;7379669;19;20156;-74
2023/04/26 08:10:30;;;;;;;12.70;4.50;;;10.60;1.00;12.80;94025.00;;;;7380177;19;20148;-75
2023/04/26 08:13:02;;;;;;;14.20;4.15;;;10.60;1.00;11.20;94017.00;;;;7382157;19;20576;-72
2023/04/26 08:15:35;;;;;;;9.88;4.07;;;10.50;1.00;11.10;94047.00;;;;7381182;19;20129;-75
2023/04/26 08:18:09;;;;;;;10.13;4.30;;;10.10;1.00;10.60;94042.00;;;;7381921;19;20137;-76
2023/04/26 08:20:43;;;;;;;10.35;5.95;;;9.70;1.00;9.90;94056.00;;;;7380846;19;20144;-75
2023/04/26 08:23:11;;;;;;;9.77;4.00;;;9.30;1.00;9.60;94064.00;;;;7382915;19;20157;-74
2023/04/26 08:25:45;;;;;;;9.25;4.50;;;9.10;1.00;9.00;94077.00;;;;7380544;19;20188;-77
2023/04/26 08:28:20;;;;;;;9.57;4.07;;;8.80;1.00;8.40;94020.00;;;;7382914;19;20172;-75
2023/04/26 08:30:54;;;;;;;7.53;3.60;;;8.40;1.00;7.90;94053.00;;;;7381187;19;20478;-76
2023/04/26 08:33:28;;;;;;;8.90;4.22;;;8.00;1.00;8.10;94049.00;;;;7383804;19;20184;-74
2023/04/26 08:36:00;;;;;;;8.07;4.35;;;7.70;1.00;7.90;94054.00;;;;7382189;19;20462;-75
2023/04/26 08:38:34;;;;;;;6.82;4.10;;;7.50;1.00;7.20;94060.00;;;;7387657;19;20145;-76
2023/04/26 08:41:04;;;;;;;7.40;4.43;;;7.40;1.00;7.30;94051.00;;;;7387242;19;20647;-76
2023/04/26 08:43:39;;;;;;;7.75;4.00;;;7.40;1.00;8.00;94058.00;;;;7386757;19;20144;-73
2023/04/26 08:46:14;;;;;;;7.47;3.90;;;7.50;1.00;8.60;94079.00;;;;7388106;19;20203;-74
2023/04/26 08:49:14;;;;;;;8.68;4.07;;;7.60;1.00;8.60;94061.00;;;;7386958;19;20672;-75
2023/04/26 08:51:44;;;;;;;9.85;4.28;;;7.90;1.00;9.20;94034.00;;;;7388297;19;20468;-75
2023/04/26 08:54:26;;;;;;;8.68;3.97;;;7.90;1.00;9.50;94054.00;;;;7387547;19;20121;-74
2023/04/26 08:56:58;;;;;;;8.38;4.47;;;8.50;1.00;10.60;94010.00;;;;7387303;19;20121;-74
2023/04/26 08:59:37;;;;;;;14.25;3.75;;;9.10;1.00;12.90;94087.00;;;;7388761;19;20136;-75
2023/04/26 09:02:17;;;;;;;8.10;3.70;;;10.30;1.00;13.70;94014.00;;;;7385974;19;20157;-74
2023/04/26 09:04:51;;;;;;;8.88;4.28;;;11.40;1.00;14.40;94030.00;;;;7384748;19;20156;-74
2023/04/26 09:07:34;;;;;;;6.50;3.83;;;12.30;1.00;15.00;94038.00;;;;7387264;19;20159;-74
2023/04/26 09:10:15;;;;;;;9.45;3.80;;;12.80;1.00;14.80;94035.00;;;;7386597;19;20224;-74
2023/04/26 09:12:44;;;;;;;9.40;4.15;;;13.10;1.00;14.10;94029.00;;;;7385866;19;20128;-73
2023/04/26 09:15:21;;;;;;;9.02;3.70;;;13.40;1.00;14.40;94037.00;;;;7387711;19;20603;-74
2023/04/26 09:17:50;;;;;;;10.65;4.32;;;13.10;1.00;14.30;94019.00;;;;7386727;19;20141;-75
2023/04/26 09:20:30;;;;;;;9.30;4.03;;;13.00;1.00;13.40;94008.00;;;;7387203;19;20155;-75
2023/04/26 09:23:07;;;;;;;9.15;3.63;;;12.70;1.00;13.30;94036.00;;;;7387160;19;20129;-76
2023/04/26 09:25:36;;;;;;;6.10;3.70;;;12.70;1.00;12.60;94010.00;;;;7383951;19;20137;-73
2023/04/26 09:28:23;;;;;;;7.22;3.00;;;12.40;1.00;11.60;94038.00;;;;7387005;19;20510;-75
2023/04/26 09:30:51;;;;;;;6.60;3.47;;;12.00;1.00;11.30;94044.00;;;;7386704;19;20129;-74
2023/04/26 09:33:26;;;;;;;8.00;3.60;;;11.60;1.00;11.10;94045.00;;;;7386247;19;20155;-74
2023/04/26 09:35:53;;;;;;;6.90;4.10;;;11.30;1.00;10.90;94003.00;;;;7386126;19;20144;-75
2023/04/26 09:38:27;;;;;;;8.02;3.70;;;11.30;1.00;11.40;94011.00;;;;7387311;19;20133;-74
2023/04/26 09:40:58;;;;;;;7.90;3.60;;;11.20;1.00;11.10;94020.00;;;;7386226;19;20132;-73
2023/04/26 09:43:36;;;;;;;5.13;3.88;;;11.10;1.00;10.50;94040.00;;;;7384952;19;20148;-76
2023/04/26 09:46:10;;;;;;;9.35;3.30;;;11.00;1.00;10.90;94043.00;;;;7385868;19;20159;-75
2023/04/26 09:49:00;;;;;;;6.63;3.00;;;10.90;1.00;11.20;94047.00;;;;7386456;19;21011;-74
2023/04/26 09:51:27;;;;;;;7.05;3.53;;;10.90;1.00;11.20;94053.00;;;;7386950;19;20133;-74
2023/04/26 09:54:05;;;;;;;11.35;3.63;;;10.80;1.00;11.20;94047.00;;;;7386981;19;20161;-73
2023/04/26 09:56:32;;;;;;;9.13;3.63;;;10.60;1.00;10.60;94041.00;;;;7387025;19;20125;-76
2023/04/26 09:59:07;;;;;;;7.20;3.70;;;10.50;1.00;10.50;94025.00;;;;7386261;19;20160;-74
2023/04/26 10:01:42;;;;;;;6.53;3.47;;;10.50;1.00;10.70;94022.00;;;;7385066;19;20152;-72
2023/04/26 10:04:10;;;;;;;7.22;3.63;;;10.40;1.00;10.80;94052.00;;;;7385206;19;20616;-73
2023/04/26 10:06:43;;;;;;;8.50;3.42;;;10.50;1.00;10.60;94047.00;;;;7387649;19;20444;-73
2023/04/26 10:09:17;;;;;;;12.65;3.67;;;10.30;1.00;10.50;94054.00;;;;7385308;19;20177;-74
2023/04/26 10:11:56;;;;;;;8.15;3.70;;;10.30;1.00;10.00;94052.00;;;;7385924;19;20500;-74
2023/04/26 10:14:31;;;;;;;7.95;3.60;;;10.20;1.00;10.50;94022.00;;;;7384983;19;20148;-75
2023/04/26 10:17:05;;;;;;;12.02;4.00;;;10.20;1.00;10.70;94036.00;;;;7387469;19;20129;-74
2023/04/26 10:19:36;;;;;;;9.02;3.75;;;10.30;1.00;10.00;94005.00;;;;7385303;19;20627;-77
2023/04/26 10:22:22;;;;;;;10.85;3.90;;;10.30;1.00;10.60;94041.00;;;;7384867;19;20148;-76
2023/04/26 10:24:52;;;;;;;7.60;3.50;;;10.40;1.00;11.20;94024.00;;;;7384585;19;20157;-75
2023/04/26 10:27:59;;;;;;;7.50;3.63;;;10.60;1.00;11.60;93984.00;;;;7386896;19;20149;-77
2023/04/26 10:30:26;;;;;;;7.47;3.33;;;11.60;1.00;13.80;93942.00;;;;7383310;19;20141;-74
2023/04/26 10:33:00;;;;;;;8.25;3.75;;;12.70;1.00;14.40;94020.00;;;;7385861;19;20133;-73
2023/04/26 10:35:29;;;;;;;6.18;3.10;;;13.80;1.00;14.20;93998.00;;;;7384479;19;20599;-73
2023/04/26 10:38:07;;;;;;;6.35;3.75;;;14.20;1.00;14.30;94012.00;;;;7383301;19;20148;-74
2023/04/26 10:40:39;;;;;;;5.53;3.20;;;14.80;1.00;14.90;94011.00;;;;7386190;19;20196;-75
2023/04/26 10:43:13;;;;;;;8.00;2.97;;;14.70;1.00;15.20;94022.00;;;;7386047;19;20120;-74
2023/04/26 10:45:49;;;;;;;6.15;3.05;;;15.00;1.00;15.20;93999.00;;;;7384094;19;20719;-73
2023/04/26 10:48:30;;;;;;;3.92;2.85;;;14.60;1.00;15.00;94023.00;;;;7383898;19;20200;-74
2023/04/26 10:51:07;;;;;;;8.48;3.63;;;14.00;1.00;13.10;94015.00;;;;7383672;19;20128;-74
2023/04/26 10:53:47;;;;;;;4.78;2.45;;;13.80;1.00;13.80;94025.00;;;;7385822;19;20150;-73
2023/04/26 10:56:27;;;;;;;6.50;3.33;;;13.60;1.00;13.60;94013.00;;;;7379950;19;20193;-74
2023/04/26 10:59:08;;;;;;;8.50;3.30;;;13.50;1.00;13.20;94027.00;;;;7384983;19;20140;-74
2023/04/26 11:02:00;;;;;;;6.20;3.08;;;13.10;1.00;12.70;94021.00;;;;7383252;19;20160;-75
2023/04/26 11:04:52;;;;;;;9.40;3.47;;;12.70;1.00;12.80;94027.00;;;;7383201;19;20159;-75
2023/04/26 11:07:37;;;;;;;5.63;2.97;;;12.60;1.00;12.40;94019.00;;;;7384304;19;20168;-73
2023/04/26 11:10:28;;;;;;;5.57;2.90;;;12.30;1.00;11.70;94007.00;;;;7384072;19;20497;-74
2023/04/26 11:13:03;;;;;;;5.72;2.95;;;11.70;1.00;10.90;94020.00;;;;7383187;19;20141;-76
2023/04/26 11:15:37;;;;;;;6.03;3.20;;;11.50;1.00;11.70;93965.00;;;;7382281;19;20129;-75
2023/04/26 11:18:11;;;;;;;9.23;2.90;;;11.60;1.00;12.20;94005.00;;;;7382567;19;20508;-74
2023/04/26 11:20:38;;;;;;;7.05;2.97;;;11.90;1.00;13.20;93958.00;;;;7383752;19;20153;-74
2023/04/26 11:23:14;;;;;;;6.13;2.90;;;12.10;1.00;13.10;94003.00;;;;7384402;19;20128;-75
2023/04/26 11:25:43;;;;;;;4.95;3.17;;;12.10;1.00;13.00;93973.00;;;;7384018;19;20140;-75
2023/04/26 11:28:18;;;;;;;5.78;3.25;;;12.40;1.00;13.30;93973.00;;;;7384047;19;20131;-75
2023/04/26 11:30:49;;;;;;;6.28;3.10;;;13.00;1.00;13.40;93971.00;;;;7383780;19;20487;-75
2023/04/26 11:33:25;;;;;;;8.88;2.90;;;13.00;1.00;13.20;93976.00;;;;7382883;19;20227;-74
2023/04/26 11:35:56;;;;;;;6.60;2.80;;;12.90;1.00;13.30;93967.00;;;;7377881;19;20136;-76